createdAt,value
2023-04-17T04:03:59.949Z,8.41
2023-04-17T04:08:03.468Z,8.29
2023-04-17T04:12:19.134Z,8.24
2023-04-17T04:16:22.156Z,8.23
2023-04-17T04:20:27.611Z,8.17
2023-04-17T04:24:40.405Z,8.12
2023-04-17T04:28:43.751Z,8.15
2023-04-17T04:32:56.075Z,8.12
2023-04-17T04:37:01.270Z,8.13
2023-04-17T04:41:13.137Z,8.06
2023-04-17T04:45:18.697Z,8.00
2023-04-17T04:49:21.826Z,8.03
2023-04-17T04:53:25.921Z,8.06
2023-04-17T04:57:32.226Z,8.07
2023-04-17T05:01:39.624Z,8.10
2023-04-17T05:05:44.281Z,8.21
2023-04-17T05:09:51.271Z,8.26
2023-04-17T05:13:53.871Z,8.20
2023-04-17T05:18:01.256Z,8.20
2023-04-17T05:22:05.683Z,8.21
2023-04-17T05:26:16.281Z,8.27
2023-04-17T05:30:19.129Z,8.30
2023-04-17T05:34:27.734Z,8.40
2023-04-17T05:38:30.273Z,8.47
2023-04-17T05:42:34.429Z,8.52
2023-04-17T05:46:37.206Z,8.62
2023-04-17T05:50:40.613Z,8.69
2023-04-17T05:54:43.799Z,8.71
2023-04-17T05:58:47.842Z,8.74
2023-04-17T06:02:51.086Z,8.69
2023-04-17T06:07:02.813Z,8.87
2023-04-17T06:11:05.512Z,8.74
2023-04-17T06:15:11.317Z,8.73
2023-04-17T06:19:14.080Z,8.65
2023-04-17T06:23:16.947Z,8.63
2023-04-17T06:27:19.448Z,8.87
2023-04-17T06:31:24.152Z,9.00
2023-04-17T06:35:26.840Z,8.87
2023-04-17T06:39:34.910Z,9.10
2023-04-17T06:43:38.018Z,9.36
2023-04-17T06:47:50.538Z,9.28
2023-04-17T06:51:53.137Z,9.43
2023-04-17T06:55:55.693Z,9.65
2023-04-17T06:59:58.194Z,9.68
2023-04-17T07:04:02.517Z,9.77
2023-04-17T07:08:05.513Z,9.93
2023-04-17T07:12:08.035Z,10.22
2023-04-17T07:16:10.610Z,9.98
2023-04-17T07:20:14.714Z,10.27
2023-04-17T07:24:17.296Z,10.48
2023-04-17T07:28:20.091Z,10.38
2023-04-17T07:32:24.144Z,10.68
2023-04-17T07:36:28.465Z,10.82
2023-04-17T07:40:32.060Z,11.09
2023-04-17T07:44:34.599Z,11.10
2023-04-17T07:48:37.136Z,10.94
2023-04-17T07:52:41.071Z,11.17
2023-04-17T07:56:46.437Z,11.34
2023-04-17T08:00:48.949Z,11.44
2023-04-17T08:04:52.343Z,11.34
2023-04-17T08:08:56.429Z,11.32
2023-04-17T08:12:59.130Z,11.63
2023-04-17T08:17:01.830Z,11.68
2023-04-17T08:21:04.979Z,11.58
2023-04-17T08:25:10.274Z,11.33
2023-04-17T08:29:13.818Z,11.72
2023-04-17T08:33:17.156Z,11.56
2023-04-17T08:37:19.787Z,11.57
2023-04-17T08:41:27.759Z,11.90
2023-04-17T08:45:30.510Z,11.69
2023-04-17T08:49:35.647Z,11.91
2023-04-17T08:53:38.266Z,12.03
2023-04-17T08:57:56.197Z,12.19
2023-04-17T09:02:03.181Z,11.93
2023-04-17T09:06:06.377Z,12.03
2023-04-17T09:10:09.603Z,12.08
2023-04-17T09:14:30.652Z,11.72
2023-04-17T09:18:34.568Z,11.91
2023-04-17T09:22:39.207Z,12.09
2023-04-17T09:26:41.983Z,12.16
2023-04-17T09:30:45.870Z,12.36
2023-04-17T09:34:48.389Z,12.61
2023-04-17T09:38:51.504Z,12.85
2023-04-17T09:42:59.439Z,13.38
2023-04-17T09:47:06.015Z,13.25
2023-04-17T09:51:08.887Z,13.32
2023-04-17T09:55:12.710Z,13.33
2023-04-17T09:59:16.541Z,13.12
2023-04-17T10:03:21.242Z,13.29
2023-04-17T10:07:23.962Z,13.63
2023-04-17T10:11:31.285Z,13.66
2023-04-17T10:15:34.619Z,13.57
2023-04-17T10:19:38.652Z,13.93
2023-04-17T10:23:41.167Z,13.94
2023-04-17T10:27:45.318Z,14.13
2023-04-17T10:32:17.382Z,14.49
2023-04-17T10:36:51.170Z,14.35
2023-04-17T10:40:54.768Z,14.52
2023-04-17T10:45:01.498Z,14.57
2023-04-17T10:49:05.503Z,14.71
2023-04-17T10:53:09.461Z,14.74
2023-04-17T10:57:12.027Z,14.89
2023-04-17T11:01:14.650Z,15.79
2023-04-17T11:05:18.206Z,16.31
2023-04-17T11:09:23.481Z,15.89
2023-04-17T11:13:26.383Z,15.34
2023-04-17T11:17:28.974Z,14.79
2023-04-17T11:21:31.516Z,15.23
2023-04-17T11:25:35.504Z,15.08
2023-04-17T11:29:38.038Z,15.00
2023-04-17T11:33:41.212Z,15.27
2023-04-17T11:38:17.534Z,15.07
2023-04-17T11:42:28.134Z,15.16
2023-04-17T11:46:30.808Z,15.61
2023-04-17T11:50:34.165Z,15.79
2023-04-17T11:54:37.377Z,15.61
2023-04-17T11:58:48.443Z,15.11
2023-04-17T12:02:51.859Z,15.41
2023-04-17T12:06:54.523Z,15.61
2023-04-17T12:10:58.163Z,15.62
2023-04-17T12:15:02.908Z,15.65
2023-04-17T12:19:05.530Z,15.47
2023-04-17T12:23:08.050Z,15.81
2023-04-17T12:27:10.642Z,15.86
2023-04-17T12:31:14.522Z,15.92
2023-04-17T12:35:17.112Z,15.26
2023-04-17T12:39:19.743Z,15.76
2023-04-17T12:43:22.239Z,15.45
2023-04-17T12:47:26.216Z,15.81
2023-04-17T12:51:29.052Z,15.74
2023-04-17T12:55:32.266Z,16.18
2023-04-17T12:59:34.795Z,16.33
2023-04-17T13:03:38.864Z,16.21
2023-04-17T13:07:41.651Z,16.04
2023-04-17T13:11:44.190Z,16.03
2023-04-17T13:15:47.423Z,15.90
2023-04-17T13:19:51.154Z,15.33
2023-04-17T13:23:53.659Z,15.35
2023-04-17T13:27:56.219Z,15.70
2023-04-17T13:31:58.885Z,16.30
2023-04-17T13:36:02.793Z,16.28
2023-04-17T13:40:06.222Z,15.90
2023-04-17T13:44:08.787Z,16.34
2023-04-17T13:48:11.439Z,16.05
2023-04-17T13:52:15.369Z,15.93
2023-04-17T13:56:17.881Z,15.74
2023-04-17T14:00:21.966Z,15.49
2023-04-17T14:04:24.690Z,16.07
2023-04-17T14:08:28.682Z,16.77
2023-04-17T14:12:31.187Z,16.79
2023-04-17T14:16:33.813Z,16.75
2023-04-17T14:20:36.633Z,16.67
2023-04-17T14:24:40.480Z,17.43
2023-04-17T14:28:43.029Z,16.83
2023-04-17T14:32:45.594Z,16.65
2023-04-17T14:36:48.785Z,16.79
2023-04-17T14:40:52.829Z,16.52
2023-04-17T14:44:55.368Z,16.38
2023-04-17T14:48:57.902Z,16.16
2023-04-17T14:53:00.546Z,16.46
2023-04-17T14:57:04.638Z,16.36
2023-04-17T15:01:07.205Z,16.27
2023-04-17T15:05:10.716Z,16.81
2023-04-17T15:09:13.649Z,16.19
2023-04-17T15:13:17.604Z,16.02
2023-04-17T15:17:20.294Z,15.95
2023-04-17T15:21:22.957Z,15.82
2023-04-17T15:25:25.763Z,15.99
2023-04-17T15:29:29.657Z,16.37
2023-04-17T15:33:32.197Z,17.37
2023-04-17T15:37:34.817Z,16.46
2023-04-17T15:41:40.218Z,16.58
2023-04-17T15:45:44.245Z,16.86
2023-04-17T15:49:48.073Z,16.79
2023-04-17T15:53:50.755Z,16.39
2023-04-17T15:57:53.299Z,16.64
2023-04-17T16:01:57.288Z,16.69
2023-04-17T16:05:59.887Z,17.54
2023-04-17T16:10:02.432Z,17.02
2023-04-17T16:14:04.995Z,16.79
2023-04-17T16:18:09.252Z,16.62
2023-04-17T16:22:11.768Z,16.74
2023-04-17T16:26:14.574Z,16.75
2023-04-17T16:30:17.181Z,16.99
2023-04-17T16:34:21.319Z,17.18
2023-04-17T16:38:23.916Z,17.08
2023-04-17T16:42:26.422Z,17.05
2023-04-17T16:46:40.194Z,17.52
2023-04-17T16:50:52.794Z,16.74
2023-04-17T16:54:55.310Z,16.67
2023-04-17T16:58:57.794Z,16.93
2023-04-17T17:03:00.482Z,17.18
2023-04-17T17:07:04.625Z,16.83
2023-04-17T17:11:07.198Z,16.42
2023-04-17T17:15:10.459Z,16.22
2023-04-17T17:19:12.997Z,16.12
2023-04-17T17:23:17.102Z,15.50
2023-04-17T17:27:19.645Z,15.16
2023-04-17T17:31:22.367Z,15.21
2023-04-17T17:35:24.997Z,15.04
2023-04-17T17:39:28.879Z,14.71
2023-04-17T17:43:31.406Z,14.31
2023-04-17T17:47:34.005Z,13.94
2023-04-17T17:51:36.669Z,13.74
2023-04-17T17:55:40.624Z,13.48
2023-04-17T17:59:43.177Z,13.27
2023-04-17T18:03:48.122Z,13.21
2023-04-17T18:07:52.294Z,13.17
2023-04-17T18:11:56.867Z,12.92
2023-04-17T18:15:59.423Z,12.60
2023-04-17T18:20:01.985Z,12.67
2023-04-17T18:24:04.938Z,12.55
2023-04-17T18:28:08.812Z,12.14
2023-04-17T18:32:11.495Z,11.99
2023-04-17T18:36:14.105Z,11.93
2023-04-17T18:40:16.771Z,11.89
2023-04-17T18:44:20.813Z,11.76
2023-04-17T18:48:24.764Z,11.69
2023-04-17T18:52:27.320Z,11.57
2023-04-17T18:56:30.232Z,11.48
2023-04-17T19:00:34.169Z,11.30
2023-04-17T19:04:36.708Z,11.14
2023-04-17T19:08:39.751Z,11.03
2023-04-17T19:12:43.866Z,10.99
2023-04-17T19:16:47.826Z,10.79
2023-04-17T19:20:50.681Z,10.65
2023-04-17T19:24:53.190Z,10.56
2023-04-17T19:28:56.125Z,10.51
2023-04-17T19:33:00.317Z,10.46
2023-04-17T19:37:02.959Z,10.30
2023-04-17T19:41:14.692Z,10.25
2023-04-17T19:45:17.646Z,10.03
2023-04-17T19:49:21.535Z,9.88
2023-04-17T19:53:24.084Z,9.78
2023-04-17T19:57:26.708Z,9.74
2023-04-17T20:01:30.739Z,9.66
2023-04-17T20:05:34.768Z,9.54
2023-04-17T20:09:37.278Z,9.38
2023-04-17T20:13:39.861Z,9.28
2023-04-17T20:17:42.456Z,9.23
2023-04-17T20:21:47.559Z,9.24
2023-04-17T20:25:50.432Z,9.36
2023-04-17T20:29:52.992Z,9.51
2023-04-17T20:33:55.581Z,9.47
2023-04-17T20:37:59.438Z,9.52
2023-04-17T20:42:01.979Z,9.65
2023-04-17T20:46:05.949Z,9.62
2023-04-17T20:50:09.653Z,9.37
2023-04-17T20:54:13.702Z,9.26
2023-04-17T20:58:16.385Z,9.27
